createdAt,value
2019-04-07T00:01:00.168Z,24.33
2019-04-07T00:03:32.314Z,42.80
2019-04-07T00:06:04.166Z,29.63
2019-04-07T00:08:37.637Z,31.27
2019-04-07T00:11:09.410Z,22.60
2019-04-07T00:13:41.394Z,30.03
2019-04-07T00:16:13.480Z,30.67
2019-04-07T00:18:45.237Z,30.07
2019-04-07T00:21:16.968Z,31.27
2019-04-07T00:23:57.956Z,26.93
2019-04-07T00:26:29.933Z,31.63
2019-04-07T00:29:01.714Z,27.40
2019-04-07T00:31:33.384Z,34.10
2019-04-07T00:34:05.293Z,32.30
2019-04-07T00:36:37.810Z,26.13
2019-04-07T00:39:10.538Z,31.13
2019-04-07T00:41:44.261Z,28.13
2019-04-07T00:44:19.019Z,27.50
2019-04-07T00:46:51.116Z,34.20
2019-04-07T00:49:22.785Z,30.30
2019-04-07T00:51:58.487Z,29.03
2019-04-07T00:54:30.559Z,28.73
2019-04-07T00:57:02.345Z,32.13
2019-04-07T00:59:34.164Z,27.93
2019-04-07T01:02:05.916Z,26.70
2019-04-07T01:04:39.656Z,31.10
2019-04-07T01:07:11.424Z,32.33
2019-04-07T01:09:43.235Z,29.87
2019-04-07T01:12:14.929Z,31.27
2019-04-07T01:14:46.705Z,31.20
2019-04-07T01:17:21.628Z,28.07
2019-04-07T01:19:53.626Z,31.87
2019-04-07T01:22:29.611Z,27.77
2019-04-07T01:25:01.455Z,27.07
2019-04-07T01:27:34.623Z,33.13
2019-04-07T01:30:07.190Z,28.37
2019-04-07T01:32:39.508Z,29.47
2019-04-07T01:35:11.293Z,33.77
2019-04-07T01:37:43.092Z,43.90
2019-04-07T01:40:15.679Z,32.23
2019-04-07T01:43:15.335Z,35.07
2019-04-07T01:46:06.375Z,31.93
2019-04-07T01:49:10.884Z,31.27
2019-04-07T01:51:59.184Z,32.00
2019-04-07T01:54:59.104Z,29.60
2019-04-07T01:58:07.951Z,31.30
2019-04-07T02:00:58.729Z,31.33
2019-04-07T02:03:41.944Z,32.27
2019-04-07T02:06:33.218Z,28.77
2019-04-07T02:09:19.322Z,33.20
2019-04-07T02:12:13.109Z,28.17
2019-04-07T02:14:58.787Z,29.73
2019-04-07T02:17:52.854Z,32.77
2019-04-07T02:21:16.214Z,27.47
2019-04-07T02:24:01.297Z,35.50
2019-04-07T02:26:54.806Z,34.07
2019-04-07T02:29:36.657Z,30.97
2019-04-07T02:32:27.863Z,34.30
2019-04-07T02:35:19.289Z,32.70
2019-04-07T02:38:25.412Z,33.17
2019-04-07T02:41:20.772Z,34.77
2019-04-07T02:44:18.040Z,31.47
2019-04-07T02:47:09.884Z,31.80
2019-04-07T02:50:07.112Z,32.90
2019-04-07T02:52:57.221Z,29.17
2019-04-07T02:55:47.081Z,32.77
2019-04-07T02:58:44.341Z,34.53
2019-04-07T03:01:33.584Z,41.63
2019-04-07T03:04:33.403Z,35.13
2019-04-07T03:07:22.497Z,31.30
2019-04-07T03:10:02.980Z,33.30
2019-04-07T03:12:53.116Z,33.93
2019-04-07T03:15:52.722Z,29.87
2019-04-07T03:18:41.029Z,31.17
2019-04-07T03:21:52.592Z,35.80
2019-04-07T03:24:48.435Z,32.13
2019-04-07T03:27:42.274Z,32.63
2019-04-07T03:30:37.924Z,34.93
2019-04-07T03:33:25.575Z,37.33
2019-04-07T03:36:21.584Z,36.10
2019-04-07T03:38:59.855Z,34.57
2019-04-07T03:41:47.218Z,34.97
2019-04-07T03:44:30.462Z,33.20
2019-04-07T03:47:26.818Z,35.90
2019-04-07T03:50:18.560Z,33.40
2019-04-07T03:53:10.063Z,40.87
2019-04-07T03:56:04.052Z,32.03
2019-04-07T03:58:55.761Z,41.27
2019-04-07T04:01:45.469Z,32.83
2019-04-07T04:04:24.163Z,34.07
2019-04-07T04:07:28.393Z,32.37
2019-04-07T04:10:03.328Z,41.53
2019-04-07T04:12:53.020Z,35.73
2019-04-07T04:15:34.338Z,31.03
2019-04-07T04:18:06.002Z,36.07
2019-04-07T04:20:37.573Z,33.60
2019-04-07T04:23:10.449Z,37.53
2019-04-07T04:25:43.086Z,33.10
2019-04-07T04:28:14.852Z,37.00
2019-04-07T04:30:46.409Z,33.30
2019-04-07T04:33:18.127Z,35.93
2019-04-07T04:35:49.955Z,34.47
2019-04-07T04:38:26.179Z,33.43
2019-04-07T04:40:58.134Z,34.37
2019-04-07T04:43:29.804Z,36.30
2019-04-07T04:46:01.471Z,36.13
2019-04-07T04:48:39.335Z,40.83
2019-04-07T04:51:13.055Z,39.47
2019-04-07T04:53:45.669Z,38.47
2019-04-07T04:56:17.469Z,35.07
2019-04-07T04:58:49.688Z,36.27
2019-04-07T05:01:22.983Z,31.57
2019-04-07T05:03:54.716Z,36.03
2019-04-07T05:06:26.517Z,32.17
2019-04-07T05:08:58.314Z,39.97
2019-04-07T05:11:31.619Z,40.33
2019-04-07T05:14:04.907Z,33.27
2019-04-07T05:16:37.263Z,33.53
2019-04-07T05:19:09.753Z,32.50
2019-04-07T05:21:41.576Z,32.20
2019-04-07T05:24:15.641Z,38.13
2019-04-07T05:26:49.522Z,30.97
2019-04-07T05:29:22.733Z,35.93
2019-04-07T05:31:54.468Z,38.13
2019-04-07T05:34:26.611Z,35.97
2019-04-07T05:36:59.588Z,31.57
2019-04-07T05:39:31.746Z,34.00
2019-04-07T05:42:03.537Z,33.33
2019-04-07T05:44:35.620Z,36.30
2019-04-07T05:47:10.592Z,30.17
2019-04-07T05:49:41.397Z,31.87
2019-04-07T05:52:17.257Z,35.97
2019-04-07T05:54:49.946Z,32.33
2019-04-07T05:57:24.033Z,37.57
2019-04-07T05:59:56.095Z,35.87
2019-04-07T06:02:31.390Z,33.40
2019-04-07T06:05:01.301Z,31.57
2019-04-07T06:07:35.916Z,34.47
2019-04-07T06:10:07.995Z,31.23
2019-04-07T06:12:43.159Z,36.90
2019-04-07T06:15:15.722Z,41.23
2019-04-07T06:17:50.271Z,35.80
2019-04-07T06:20:22.493Z,32.63
2019-04-07T06:22:54.699Z,42.37
2019-04-07T06:25:27.314Z,44.50
2019-04-07T06:27:59.311Z,40.83
2019-04-07T06:30:33.928Z,42.50
2019-04-07T06:33:07.355Z,42.50
2019-04-07T06:35:43.782Z,43.93
2019-04-07T06:38:29.611Z,44.77
2019-04-07T06:40:55.882Z,43.07
2019-04-07T06:43:24.864Z,36.23
2019-04-07T06:46:07.139Z,33.30
2019-04-07T06:48:57.704Z,36.47
2019-04-07T06:51:40.230Z,37.17
2019-04-07T06:54:50.111Z,34.73
2019-04-07T06:57:40.085Z,40.33
2019-04-07T07:00:43.253Z,37.43
2019-04-07T07:03:41.098Z,42.90
2019-04-07T07:06:33.196Z,36.93
2019-04-07T07:09:25.804Z,41.57
2019-04-07T07:12:27.084Z,35.63
2019-04-07T07:15:15.677Z,40.23
2019-04-07T07:18:03.597Z,38.97
2019-04-07T07:20:55.621Z,40.03
2019-04-07T07:23:32.011Z,38.43
2019-04-07T07:26:04.236Z,37.17
2019-04-07T07:28:42.725Z,41.47
2019-04-07T07:31:13.110Z,41.97
2019-04-07T07:33:44.928Z,36.43
2019-04-07T07:36:18.415Z,33.37
2019-04-07T07:38:59.822Z,31.43
2019-04-07T07:41:24.218Z,33.30
2019-04-07T07:44:00.707Z,37.57
2019-04-07T07:46:32.237Z,33.27
2019-04-07T07:49:06.025Z,35.37
2019-04-07T07:51:45.031Z,36.67
2019-04-07T07:54:15.982Z,32.20
2019-04-07T07:56:50.149Z,35.77
2019-04-07T07:59:24.139Z,30.70
2019-04-07T08:01:57.798Z,32.77
2019-04-07T08:04:30.834Z,25.60
2019-04-07T08:07:02.775Z,30.97
2019-04-07T08:09:34.692Z,34.97
2019-04-07T08:12:08.488Z,33.67
2019-04-07T08:14:40.395Z,29.70
2019-04-07T08:17:12.286Z,24.60
2019-04-07T08:19:45.288Z,31.07
2019-04-07T08:22:27.520Z,27.93
2019-04-07T08:24:52.087Z,27.23
2019-04-07T08:27:24.526Z,19.70
2019-04-07T08:29:57.200Z,29.47
2019-04-07T08:32:33.405Z,25.20
2019-04-07T08:35:06.891Z,23.83
2019-04-07T08:37:39.373Z,25.60
2019-04-07T08:40:11.971Z,28.97
2019-04-07T08:42:46.370Z,28.53
2019-04-07T08:45:18.934Z,24.80
2019-04-07T08:47:52.521Z,22.87
2019-04-07T08:50:27.693Z,27.13
2019-04-07T08:52:57.926Z,21.57
2019-04-07T08:55:30.934Z,20.57
2019-04-07T08:58:05.307Z,23.77
2019-04-07T09:00:38.473Z,23.03
2019-04-07T09:03:14.735Z,22.57
2019-04-07T09:05:45.523Z,21.40
2019-04-07T09:08:17.951Z,24.63
2019-04-07T09:10:55.112Z,19.63
2019-04-07T09:13:27.661Z,16.07
2019-04-07T09:16:28.023Z,17.97
2019-04-07T09:19:25.200Z,17.43
2019-04-07T09:22:23.149Z,17.17
2019-04-07T09:25:17.132Z,48.67
2019-04-07T09:28:11.946Z,19.30
2019-04-07T09:31:11.867Z,18.27
2019-04-07T09:34:09.113Z,20.03
2019-04-07T09:37:04.460Z,15.50
2019-04-07T09:40:03.178Z,20.13
2019-04-07T09:42:57.593Z,19.30
2019-04-07T09:45:39.598Z,16.37
2019-04-07T09:48:31.148Z,14.83
2019-04-07T09:51:42.866Z,18.10
2019-04-07T09:54:47.366Z,17.50
2019-04-07T09:57:41.852Z,20.30
2019-04-07T10:00:24.251Z,17.90
2019-04-07T10:03:16.657Z,16.30
2019-04-07T10:06:00.756Z,18.20
2019-04-07T10:09:01.080Z,15.73
2019-04-07T10:11:50.837Z,18.37
2019-04-07T10:14:44.523Z,17.33
2019-04-07T10:17:34.526Z,14.50
2019-04-07T10:20:33.695Z,18.40
2019-04-07T10:23:24.231Z,18.83
2019-04-07T10:26:09.869Z,17.90
2019-04-07T10:28:47.662Z,17.57
2019-04-07T10:31:49.335Z,17.97
2019-04-07T10:34:49.752Z,17.07
2019-04-07T10:37:39.412Z,15.63
2019-04-07T10:40:35.654Z,14.30
2019-04-07T10:43:20.562Z,19.20
2019-04-07T10:46:33.651Z,19.40
2019-04-07T10:49:21.367Z,17.07
2019-04-07T10:52:13.550Z,19.67
2019-04-07T10:55:07.365Z,23.37
2019-04-07T10:58:04.308Z,24.37
2019-04-07T11:00:48.533Z,24.67
2019-04-07T11:03:46.066Z,19.57
2019-04-07T11:06:39.405Z,22.13
2019-04-07T11:09:30.040Z,15.43
2019-04-07T11:12:20.038Z,15.23
2019-04-07T11:15:16.751Z,16.37
2019-04-07T11:18:06.499Z,18.80
2019-04-07T11:20:57.312Z,17.53
2019-04-07T11:23:37.089Z,16.23
2019-04-07T11:26:21.913Z,16.20
2019-04-07T11:29:00.108Z,20.73
2019-04-07T11:31:54.932Z,17.30
2019-04-07T11:34:43.837Z,15.30
2019-04-07T11:37:34.201Z,15.87
2019-04-07T11:40:44.492Z,17.70
2019-04-07T11:43:24.699Z,17.10
2019-04-07T11:46:05.730Z,16.70
2019-04-07T11:48:46.842Z,14.70
2019-04-07T11:51:39.134Z,16.20
2019-04-07T11:54:27.911Z,15.93
2019-04-07T11:57:24.873Z,15.40
2019-04-07T12:00:18.393Z,19.77
2019-04-07T12:03:26.858Z,16.37
2019-04-07T12:06:17.269Z,15.07
2019-04-07T12:09:08.457Z,15.00
2019-04-07T12:12:02.496Z,13.80
2019-04-07T12:15:03.139Z,14.10
2019-04-07T12:18:07.119Z,15.97
2019-04-07T12:21:04.215Z,13.40
2019-04-07T12:23:59.359Z,15.60
2019-04-07T12:26:51.848Z,16.13
2019-04-07T12:29:37.584Z,14.90
2019-04-07T12:32:18.121Z,12.23
2019-04-07T12:35:08.765Z,12.53
2019-04-07T12:38:12.337Z,14.77
2019-04-07T12:41:23.029Z,15.90
2019-04-07T12:44:10.394Z,12.03
2019-04-07T12:47:11.343Z,15.17
2019-04-07T12:49:51.945Z,13.90
2019-04-07T12:52:35.486Z,15.13
2019-04-07T12:55:25.129Z,14.23
2019-04-07T12:58:31.278Z,14.17
2019-04-07T13:01:35.945Z,14.13
2019-04-07T13:04:16.226Z,11.83
2019-04-07T13:06:57.773Z,13.33
2019-04-07T13:10:01.904Z,11.97
2019-04-07T13:12:53.615Z,12.93
2019-04-07T13:16:00.362Z,11.80
2019-04-07T13:19:10.209Z,12.60
2019-04-07T13:22:21.584Z,10.70
2019-04-07T13:25:22.829Z,15.73
2019-04-07T13:28:20.638Z,12.47
2019-04-07T13:31:19.220Z,13.13
2019-04-07T13:34:24.618Z,17.00
2019-04-07T13:37:20.613Z,14.50
2019-04-07T13:40:13.110Z,13.97
2019-04-07T13:43:21.167Z,9.83
2019-04-07T13:46:18.931Z,11.13
2019-04-07T13:49:04.318Z,9.27
2019-04-07T13:51:49.539Z,13.20
2019-04-07T13:54:49.362Z,14.20
2019-04-07T13:57:39.293Z,11.27
2019-04-07T14:00:38.092Z,12.97
2019-04-07T14:03:44.168Z,10.03
2019-04-07T14:06:45.919Z,13.83
2019-04-07T14:09:34.142Z,13.57
2019-04-07T14:12:18.769Z,11.87
2019-04-07T14:15:07.593Z,12.90
2019-04-07T14:17:46.870Z,11.73
2019-04-07T14:20:55.143Z,10.70
2019-04-07T14:23:54.642Z,9.37
2019-04-07T14:26:43.517Z,11.43
2019-04-07T14:29:40.603Z,14.93
2019-04-07T14:32:23.394Z,11.27
2019-04-07T14:35:29.391Z,11.57
2019-04-07T14:38:26.559Z,15.23
2019-04-07T14:41:17.179Z,10.63
2019-04-07T14:44:11.346Z,13.35
2019-04-07T14:47:01.167Z,9.43
2019-04-07T14:49:52.107Z,12.63
2019-04-07T14:52:41.303Z,13.70
2019-04-07T14:55:24.848Z,11.40
2019-04-07T14:58:18.698Z,13.93
2019-04-07T15:01:08.319Z,12.83
2019-04-07T15:03:40.699Z,12.07
2019-04-07T15:06:12.603Z,12.97
2019-04-07T15:09:01.889Z,13.57
2019-04-07T15:11:38.424Z,15.10
2019-04-07T15:14:11.601Z,12.30
2019-04-07T15:16:43.913Z,11.27
2019-04-07T15:19:16.553Z,13.77
2019-04-07T15:21:51.927Z,12.60
2019-04-07T15:24:22.748Z,12.60
2019-04-07T15:26:56.086Z,12.23
2019-04-07T15:29:27.653Z,13.03
2019-04-07T15:31:59.805Z,13.10
2019-04-07T15:34:32.114Z,16.57
2019-04-07T15:37:07.908Z,11.57
2019-04-07T15:39:39.981Z,15.53
2019-04-07T15:42:15.325Z,16.37
2019-04-07T15:44:45.065Z,14.23
2019-04-07T15:47:16.892Z,12.83
2019-04-07T15:49:58.136Z,9.60
2019-04-07T15:52:31.501Z,12.37
2019-04-07T15:55:03.401Z,15.03
2019-04-07T15:57:36.090Z,12.63
2019-04-07T16:00:08.400Z,12.57
2019-04-07T16:02:42.219Z,13.60
2019-04-07T16:05:13.746Z,14.43
2019-04-07T16:07:48.070Z,14.53
2019-04-07T16:10:21.964Z,15.20
2019-04-07T16:12:54.120Z,13.23
2019-04-07T16:15:27.263Z,12.60
2019-04-07T16:17:58.913Z,11.80
2019-04-07T16:20:35.694Z,15.23
2019-04-07T16:23:03.769Z,13.47
2019-04-07T16:25:41.865Z,12.47
2019-04-07T16:28:16.670Z,15.97
2019-04-07T16:30:50.888Z,16.27
2019-04-07T16:33:21.738Z,23.97
2019-04-07T16:35:56.327Z,19.67
2019-04-07T16:38:30.174Z,15.77
2019-04-07T16:41:02.625Z,11.73
2019-04-07T16:43:35.552Z,12.30
2019-04-07T16:46:22.446Z,15.10
2019-04-07T16:48:55.618Z,18.60
2019-04-07T16:51:30.038Z,18.57
2019-04-07T16:54:00.365Z,11.97
2019-04-07T16:56:32.291Z,11.47
2019-04-07T16:59:04.267Z,13.37
2019-04-07T17:01:36.733Z,12.80
2019-04-07T17:04:08.377Z,12.63
2019-04-07T17:06:42.208Z,13.30
2019-04-07T17:09:23.079Z,13.50
2019-04-07T17:11:52.027Z,15.53
2019-04-07T17:14:23.790Z,13.80
2019-04-07T17:16:57.979Z,15.43
2019-04-07T17:19:30.197Z,13.77
2019-04-07T17:22:03.016Z,12.93
2019-04-07T17:24:34.793Z,12.93
2019-04-07T17:27:09.721Z,15.57
2019-04-07T17:29:40.281Z,12.67
2019-04-07T17:32:12.289Z,13.80
2019-04-07T17:34:46.496Z,16.90
2019-04-07T17:37:18.579Z,16.93
2019-04-07T17:40:14.847Z,13.37
2019-04-07T17:42:52.767Z,13.97
2019-04-07T17:45:52.088Z,14.30
2019-04-07T17:48:38.501Z,15.03
2019-04-07T17:51:18.127Z,15.27
2019-04-07T17:54:21.306Z,14.13
2019-04-07T17:57:03.796Z,16.13
2019-04-07T18:00:02.133Z,13.33
2019-04-07T18:02:56.906Z,15.13
2019-04-07T18:05:41.649Z,17.77
2019-04-07T18:08:33.818Z,20.07
2019-04-07T18:11:37.759Z,16.07
2019-04-07T18:14:22.716Z,17.97
2019-04-07T18:17:04.490Z,19.47
2019-04-07T18:19:41.588Z,16.90
2019-04-07T18:22:31.863Z,24.90
2019-04-07T18:25:25.276Z,19.07
2019-04-07T18:28:21.500Z,22.27
2019-04-07T18:31:14.169Z,19.67
2019-04-07T18:34:08.022Z,21.37
2019-04-07T18:37:38.808Z,19.03
2019-04-07T18:40:50.653Z,15.93
2019-04-07T18:43:48.722Z,19.23
2019-04-07T18:46:35.955Z,18.23
2019-04-07T18:49:32.075Z,15.87
2019-04-07T18:52:32.514Z,14.80
2019-04-07T18:55:27.058Z,18.17
2019-04-07T18:58:28.870Z,14.93
2019-04-07T19:01:25.354Z,29.20
2019-04-07T19:04:08.049Z,16.17
2019-04-07T19:07:16.693Z,18.50
2019-04-07T19:10:17.609Z,23.00
2019-04-07T19:13:12.129Z,35.93
2019-04-07T19:16:01.897Z,25.53
2019-04-07T19:18:52.014Z,25.93
2019-04-07T19:22:00.530Z,25.17
2019-04-07T19:24:48.384Z,18.90
2019-04-07T19:27:33.922Z,20.07
2019-04-07T19:30:26.547Z,20.60
2019-04-07T19:33:16.381Z,18.53
2019-04-07T19:36:20.520Z,18.97
2019-04-07T19:39:02.696Z,18.20
2019-04-07T19:41:50.966Z,19.77
2019-04-07T19:44:37.167Z,19.60
2019-04-07T19:47:41.694Z,17.87
2019-04-07T19:50:35.012Z,20.43
2019-04-07T19:53:30.338Z,18.37
2019-04-07T19:56:25.356Z,21.67
2019-04-07T19:59:22.266Z,21.20
2019-04-07T20:02:31.499Z,22.43
2019-04-07T20:05:20.002Z,23.00
2019-04-07T20:08:16.513Z,26.00
2019-04-07T20:11:18.974Z,23.77
2019-04-07T20:14:18.378Z,20.73
2019-04-07T20:17:16.408Z,39.27
2019-04-07T20:20:08.801Z,29.63
2019-04-07T20:22:58.885Z,23.70
2019-04-07T20:25:55.596Z,25.77
2019-04-07T20:28:46.454Z,30.20
2019-04-07T20:31:40.777Z,27.57
2019-04-07T20:34:28.611Z,23.50
2019-04-07T20:37:15.085Z,25.17
2019-04-07T20:40:03.446Z,22.63
2019-04-07T20:42:48.422Z,24.93
2019-04-07T20:45:41.184Z,21.63
2019-04-07T20:48:33.458Z,24.87
2019-04-07T20:51:23.122Z,23.60
2019-04-07T20:54:05.931Z,23.47
2019-04-07T20:57:05.290Z,26.47
2019-04-07T20:59:50.453Z,27.77
2019-04-07T21:02:48.718Z,25.77
2019-04-07T21:05:48.289Z,26.40
2019-04-07T21:08:38.796Z,25.17
2019-04-07T21:11:25.863Z,27.00
2019-04-07T21:14:22.851Z,28.93
2019-04-07T21:17:13.586Z,32.37
2019-04-07T21:20:11.812Z,33.83
2019-04-07T21:23:05.710Z,27.33
2019-04-07T21:25:56.043Z,27.97
2019-04-07T21:28:57.656Z,40.53
2019-04-07T21:31:47.414Z,30.23
2019-04-07T21:34:46.045Z,33.97
2019-04-07T21:37:40.718Z,35.53
2019-04-07T21:40:17.540Z,34.60
2019-04-07T21:43:09.325Z,38.33
2019-04-07T21:45:58.310Z,31.43
2019-04-07T21:49:02.371Z,35.17
2019-04-07T21:52:02.630Z,30.07
2019-04-07T21:54:47.109Z,42.87
2019-04-07T21:57:28.854Z,34.27
2019-04-07T22:00:33.107Z,35.00
2019-04-07T22:03:25.313Z,50.30
2019-04-07T22:06:16.512Z,50.77
2019-04-07T22:08:53.759Z,47.53
2019-04-07T22:11:29.015Z,44.37
2019-04-07T22:13:59.291Z,42.10
2019-04-07T22:16:32.788Z,45.50
2019-04-07T22:19:04.552Z,48.53
2019-04-07T22:21:36.555Z,43.57
2019-04-07T22:24:08.928Z,48.17
2019-04-07T22:26:40.872Z,41.23
2019-04-07T22:29:12.619Z,48.50
2019-04-07T22:31:53.515Z,39.70
2019-04-07T22:34:25.432Z,41.57
2019-04-07T22:36:57.908Z,35.07
2019-04-07T22:39:30.901Z,41.40
2019-04-07T22:42:03.417Z,32.63
2019-04-07T22:44:35.575Z,37.07
2019-04-07T22:47:07.374Z,34.53
2019-04-07T22:49:39.153Z,42.50
2019-04-07T22:52:15.771Z,50.23
2019-04-07T22:54:45.482Z,56.67
2019-04-07T22:57:17.723Z,50.80
2019-04-07T22:59:52.510Z,46.63
2019-04-07T23:02:24.216Z,46.83
2019-04-07T23:04:55.941Z,51.23
2019-04-07T23:07:27.682Z,54.93
2019-04-07T23:10:00.421Z,46.90
2019-04-07T23:12:32.853Z,45.03
2019-04-07T23:15:05.651Z,44.07
2019-04-07T23:17:37.506Z,47.60
2019-04-07T23:20:09.761Z,48.17
2019-04-07T23:22:42.345Z,45.67
2019-04-07T23:25:14.376Z,41.30
2019-04-07T23:27:48.124Z,40.67
2019-04-07T23:30:24.561Z,40.37
2019-04-07T23:32:56.470Z,36.43
2019-04-07T23:35:28.770Z,38.80
2019-04-07T23:38:01.502Z,29.80
2019-04-07T23:40:34.241Z,47.40
2019-04-07T23:43:06.054Z,42.20
2019-04-07T23:45:37.862Z,39.73
2019-04-07T23:48:10.373Z,39.97
2019-04-07T23:50:42.343Z,38.03
2019-04-07T23:53:50.627Z,47.23
2019-04-07T23:56:25.239Z,40.10
2019-04-07T23:58:56.906Z,45.87
